Time;durP1;ratioP1;P1;durP2;ratioP2;P2;SDS_P1;SDS_P2;PMS_P1;PMS_P2;Temp;Humidity;BMP_temperature;BMP_pressure;BME280_temperature;BME280_humidity;BME280_pressure;Samples;Min_cycle;Max_cycle;Signal;HPM_P1;HPM_P2
2022/01/26 00:00:05;;;;;;;16.83;10.30;;;;;;;-143.84;48.20;45229.97;4946892;28;20208;-71
2022/01/26 00:06:03;;;;;;;;;;;;;;;;;;;;;
2022/01/26 00:19:33;;;;;;;17.85;11.38;;;;;;;-143.84;48.91;45201.41;4784505;30;20228;-72
2022/01/26 00:29:21;;;;;;;19.65;10.52;;;;;;;-143.84;49.58;45231.88;4919345;28;20203;-72
2022/01/26 00:40:19;;;;;;;16.83;10.63;;;;;;;-143.84;49.91;45189.97;5071312;28;20232;-71
2022/01/26 00:42:49;;;;;;;23.85;11.85;;;;;;;-143.84;49.98;45214.72;5072360;28;20990;-72
2022/01/26 00:45:21;;;;;;;20.60;11.00;;;;;;;-143.84;50.19;45212.84;5071088;28;20215;-72
2022/01/26 00:47:50;;;;;;;21.88;10.30;;;;;;;-143.84;50.11;45218.53;5070968;28;20197;-72
2022/01/26 00:50:17;;;;;;;21.85;11.35;;;;;;;-143.84;50.01;45205.22;5072065;28;20192;-72
2022/01/26 00:52:52;;;;;;;21.98;10.93;;;;;;;-143.84;50.05;45222.34;5071794;28;20183;-72
2022/01/26 00:55:19;;;;;;;17.77;10.93;;;;;;;-143.84;50.63;45186.16;5069627;28;20683;-72
2022/01/26 00:57:47;;;;;;;20.33;10.75;;;;;;;-143.84;50.27;45212.84;5070297;28;20202;-72
2022/01/26 01:00:17;;;;;;;19.25;10.57;;;;;;;-143.84;50.41;45189.97;5071731;28;20199;-71
2022/01/26 01:02:44;;;;;;;15.13;9.63;;;;;;;-143.84;50.76;45201.41;5070764;28;20214;-72
2022/01/26 01:05:18;;;;;;;20.77;11.77;;;;;;;-143.84;50.71;45180.47;5071904;28;20214;-72
2022/01/26 01:07:46;;;;;;;21.05;11.00;;;;;;;-143.84;50.99;45205.22;5069700;28;20198;-74
2022/01/26 01:10:17;;;;;;;20.98;11.77;;;;;;;-143.84;51.16;45228.06;5069219;28;20205;-74
2022/01/26 01:12:45;;;;;;;22.30;11.45;;;;;;;-143.84;51.40;45201.41;5069109;28;20281;-74
2022/01/26 01:15:13;;;;;;;21.00;11.52;;;;;;;-143.84;52.18;45237.59;5069278;28;20281;-74
2022/01/26 01:17:45;;;;;;;21.30;10.35;;;;;;;-143.84;52.18;45184.25;5069502;28;20195;-74
2022/01/26 01:20:30;;;;;;;22.10;10.90;;;;;;;-143.84;52.31;45193.78;5068881;28;20668;-74
2022/01/26 01:23:15;;;;;;;17.65;10.45;;;;;;;-143.84;52.59;45207.13;5069164;28;20199;-73
2022/01/26 01:28:45;;;;;;;28.17;12.63;;;;;;;-143.84;52.64;45216.63;5068765;28;20220;-73
2022/01/26 01:31:16;;;;;;;19.73;10.40;;;;;;;-143.84;52.85;45222.34;5069303;28;20194;-72
2022/01/26 01:33:47;;;;;;;25.60;11.90;;;;;;;-143.84;52.78;45226.16;5069138;28;20680;-73
2022/01/26 01:36:16;;;;;;;22.75;10.30;;;;;;;-143.84;53.01;45201.41;5069501;28;20238;-72
2022/01/26 01:38:44;;;;;;;17.80;10.30;;;;;;;-143.84;52.88;45209.03;5069696;28;20191;-72
2022/01/26 01:41:11;;;;;;;33.20;12.15;;;;;;;-143.84;53.01;45188.06;5069341;28;20293;-72
2022/01/26 01:43:38;;;;;;;22.80;12.27;;;;;;;-143.84;52.66;45209.03;5069306;28;20190;-72
2022/01/26 01:46:07;;;;;;;18.50;10.38;;;;;;;-143.84;52.84;45180.47;5069200;28;20284;-73
2022/01/26 01:48:34;;;;;;;21.05;11.38;;;;;;;-143.84;52.72;45214.72;5069643;28;20195;-73
2022/01/26 01:51:07;;;;;;;22.33;10.65;;;;;;;-143.84;52.93;45189.97;5069500;28;20199;-72
2022/01/26 01:53:39;;;;;;;22.23;11.30;;;;;;;-143.84;52.83;45207.13;5069198;28;20195;-72
2022/01/26 01:56:08;;;;;;;20.48;11.57;;;;;;;-143.84;53.11;45237.59;5069166;28;20206;-73
2022/01/26 01:58:36;;;;;;;19.35;10.55;;;;;;;-143.84;53.46;45201.41;5069093;28;20661;-72
2022/01/26 02:01:04;;;;;;;19.75;10.68;;;;;;;-143.84;53.40;45193.78;5069153;28;20277;-72
2022/01/26 02:03:32;;;;;;;23.73;12.55;;;;;;;-143.84;53.53;45205.22;5068806;28;20206;-72
2022/01/26 02:06:00;;;;;;;20.23;10.95;;;;;;;-143.84;53.40;45218.53;5068914;28;20241;-72
2022/01/26 02:08:27;;;;;;;19.65;11.95;;;;;;;-143.84;53.92;45218.53;5069035;28;20209;-72
2022/01/26 02:10:55;;;;;;;19.65;11.20;;;;;;;-143.84;54.24;45209.03;5068741;28;20202;-72
2022/01/26 02:13:26;;;;;;;19.95;11.32;;;;;;;-143.84;54.83;45186.16;5068961;28;20195;-72
2022/01/26 02:16:01;;;;;;;26.55;12.38;;;;;;;-143.84;54.94;45212.84;5072747;28;20206;-73
2022/01/26 02:18:49;;;;;;;20.05;10.95;;;;;;;-143.84;55.26;45203.31;5072156;28;20198;-73
2022/01/26 02:52:06;;;;;;;29.10;13.50;;;;;;;-143.84;55.89;45224.25;5072306;28;20244;-72
2022/01/26 02:54:54;;;;;;;24.77;12.20;;;;;;;-143.84;56.03;45201.41;5072061;28;20199;-72
2022/01/26 02:57:41;;;;;;;16.23;9.60;;;;;;;-143.84;56.00;45195.69;5072270;28;20203;-72
2022/01/26 03:00:24;;;;;;;13.82;8.85;;;;;;;-143.84;56.20;45205.22;5072222;28;20218;-72
2022/01/26 03:02:56;;;;;;;19.08;11.50;;;;;;;-143.84;56.29;45205.22;5072066;28;20201;-72
2022/01/26 03:05:29;;;;;;;23.25;12.40;;;;;;;-143.84;56.24;45224.25;5072092;28;20230;-72
2022/01/26 03:08:00;;;;;;;22.75;10.95;;;;;;;-143.84;56.61;45216.63;5072325;28;20652;-72
2022/01/26 03:10:37;;;;;;;25.70;10.85;;;;;;;-143.84;56.64;45197.59;5072176;28;20202;-72
2022/01/26 03:13:08;;;;;;;21.15;11.73;;;;;;;-143.84;56.28;45205.22;5072120;28;20213;-72
2022/01/26 03:15:37;;;;;;;19.05;11.73;;;;;;;-143.84;56.74;45210.94;5072026;28;20317;-72
2022/01/26 03:18:31;;;;;;;24.00;10.52;;;;;;;-143.84;56.77;45201.41;5071877;28;20199;-71
2022/01/26 03:21:01;;;;;;;22.23;11.90;;;;;;;-143.84;56.68;45224.25;5071878;28;20291;-72
2022/01/26 03:29:12;;;;;;;21.88;12.15;;;;;;;-143.84;56.65;45210.94;5071706;28;20201;-71
2022/01/26 03:34:35;;;;;;;22.05;10.48;;;;;;;-143.84;56.54;45224.25;4989745;28;20213;-72
2022/01/26 03:37:07;;;;;;;24.33;12.65;;;;;;;-143.84;56.60;45209.03;5051075;28;20602;-72
2022/01/26 03:39:41;;;;;;;23.85;12.20;;;;;;;-143.84;56.51;45212.84;5070301;28;20296;-72
2022/01/26 03:42:14;;;;;;;18.95;10.65;;;;;;;-143.84;56.35;45224.25;5071484;28;20209;-72
2022/01/26 03:44:41;;;;;;;25.98;12.93;;;;;;;-143.84;56.57;45197.59;5071050;28;20222;-72
2022/01/26 03:47:10;;;;;;;26.08;12.80;;;;;;;-143.84;56.64;45212.84;5071367;28;20654;-72
2022/01/26 03:49:37;;;;;;;18.92;10.93;;;;;;;-143.84;56.32;45224.25;5071297;28;20730;-72
2022/01/26 03:52:05;;;;;;;20.35;11.00;;;;;;;-143.84;56.13;45218.53;5071428;28;20922;-72
2022/01/26 03:54:33;;;;;;;18.10;11.27;;;;;;;-143.84;56.20;45203.31;5070189;28;20201;-72
2022/01/26 03:57:01;;;;;;;23.05;12.80;;;;;;;-143.84;56.25;45205.22;5070270;28;20199;-72
2022/01/26 03:59:30;;;;;;;19.65;10.90;;;;;;;-143.84;56.23;45233.78;5070258;28;20577;-72
2022/01/26 04:01:57;;;;;;;26.30;12.45;;;;;;;-143.84;56.01;45184.25;5070815;28;20252;-72
2022/01/26 04:04:24;;;;;;;18.42;11.30;;;;;;;-143.84;56.08;45178.56;5070846;28;20272;-72
2022/01/26 04:06:51;;;;;;;23.38;12.35;;;;;;;-143.84;56.02;45197.59;5071047;28;20194;-72
2022/01/26 04:09:19;;;;;;;26.27;11.52;;;;;;;-143.84;55.92;45210.94;5070938;28;20932;-72
2022/01/26 04:11:49;;;;;;;31.60;12.30;;;;;;;-143.84;56.40;45189.97;5070938;28;20244;-72
2022/01/26 04:14:21;;;;;;;19.42;11.40;;;;;;;-143.84;56.17;45216.63;5070572;28;20191;-72
2022/01/26 04:16:50;;;;;;;21.83;11.75;;;;;;;-143.84;56.24;45210.94;5070706;28;20256;-72
2022/01/26 04:19:18;;;;;;;21.67;11.82;;;;;;;-143.84;56.35;45189.97;5070758;28;20198;-72
2022/01/26 04:22:04;;;;;;;23.10;12.15;;;;;;;-143.84;56.54;45199.50;5070738;28;20205;-72
2022/01/26 04:24:36;;;;;;;20.10;11.02;;;;;;;-143.84;56.80;45212.84;5070747;28;20194;-72
2022/01/26 04:27:08;;;;;;;31.27;12.57;;;;;;;-143.84;56.70;45195.69;5070457;28;20289;-73
2022/01/26 04:29:35;;;;;;;24.55;14.02;;;;;;;-143.84;56.72;45201.41;5069397;28;20205;-72
2022/01/26 04:32:07;;;;;;;25.85;12.63;;;;;;;-143.84;56.31;45210.94;5070107;28;20290;-73
2022/01/26 04:34:35;;;;;;;22.40;12.10;;;;;;;-143.84;57.08;45212.84;5070304;28;20218;-72
2022/01/26 04:37:10;;;;;;;20.15;12.32;;;;;;;-143.84;57.10;45243.31;5069461;28;20243;-73
2022/01/26 04:39:43;;;;;;;25.30;13.35;;;;;;;-143.84;57.19;45205.22;5069154;28;20293;-73
2022/01/26 04:42:15;;;;;;;26.10;12.63;;;;;;;-143.84;57.19;45212.84;5069087;28;20207;-73
2022/01/26 04:44:47;;;;;;;29.35;11.15;;;;;;;-143.84;57.01;45167.13;5069770;28;20284;-72
2022/01/26 04:47:16;;;;;;;20.88;11.50;;;;;;;-143.84;57.30;45216.63;5070074;28;20230;-72
2022/01/26 04:49:43;;;;;;;20.38;12.70;;;;;;;-143.84;57.42;45178.56;5070512;28;20191;-72
2022/01/26 04:52:10;;;;;;;24.25;13.43;;;;;;;-143.84;56.89;45209.03;5069965;28;20202;-73
2022/01/26 04:54:37;;;;;;;21.10;11.60;;;;;;;-143.84;57.20;45203.31;5069926;28;20581;-72
2022/01/26 04:57:05;;;;;;;22.73;11.57;;;;;;;-143.84;57.20;45205.22;5069918;28;20567;-73
2022/01/26 04:59:32;;;;;;;22.65;11.77;;;;;;;-143.84;57.52;45201.41;5069170;28;20260;-73
2022/01/26 05:01:59;;;;;;;21.20;10.75;;;;;;;-143.84;57.98;45184.25;5068663;28;20199;-72
2022/01/26 05:04:28;;;;;;;20.17;12.15;;;;;;;-143.84;58.56;45193.78;5068998;28;20203;-72
2022/01/26 05:06:55;;;;;;;22.95;11.90;;;;;;;-143.84;58.87;45184.25;5068971;28;20303;-72
2022/01/26 05:09:22;;;;;;;24.30;13.18;;;;;;;-143.84;59.56;45174.75;5068844;28;20202;-72
2022/01/26 05:11:52;;;;;;;28.02;13.18;;;;;;;-143.84;60.69;45207.13;5069204;28;20201;-72
2022/01/26 05:14:19;;;;;;;26.45;11.95;;;;;;;-143.84;61.63;45207.13;5069604;28;20206;-72
2022/01/26 05:16:47;;;;;;;22.10;10.55;;;;;;;-143.84;63.24;45199.50;5070555;28;20217;-71
2022/01/26 05:19:14;;;;;;;30.95;13.07;;;;;;;-143.84;63.85;45191.88;5071891;28;20244;-71
2022/01/26 05:21:43;;;;;;;24.73;12.88;;;;;;;-143.84;64.86;45209.03;5072005;28;20199;-71
2022/01/26 05:24:11;;;;;;;25.98;13.27;;;;;;;-143.84;65.05;45191.88;5071860;28;20214;-71
2022/01/26 05:26:39;;;;;;;27.90;13.90;;;;;;;-143.84;65.36;45212.84;5070069;28;20268;-75
2022/01/26 05:29:06;;;;;;;20.27;11.75;;;;;;;-143.84;65.84;45210.94;5071043;28;20191;-74
2022/01/26 05:31:34;;;;;;;23.63;13.02;;;;;;;-143.84;66.05;45197.59;5069655;28;20191;-73
2022/01/26 05:34:01;;;;;;;23.80;12.40;;;;;;;-143.84;65.67;45188.06;5070935;28;20271;-73
2022/01/26 05:36:28;;;;;;;20.80;13.18;;;;;;;-143.84;66.30;45188.06;5070792;28;20233;-73
2022/01/26 05:38:57;;;;;;;23.88;12.63;;;;;;;-143.84;65.76;45191.88;5070728;28;20194;-73
2022/01/26 05:41:24;;;;;;;24.58;11.95;;;;;;;-143.84;66.05;45235.69;5070379;28;20194;-73
2022/01/26 05:43:51;;;;;;;23.63;12.55;;;;;;;-143.84;66.24;45209.03;5070760;28;20206;-73
2022/01/26 05:46:25;;;;;;;24.45;14.45;;;;;;;-143.84;66.52;45193.78;5070434;28;20977;-73
2022/01/26 05:48:53;;;;;;;35.38;18.30;;;;;;;-143.84;66.73;45186.16;5069565;28;20202;-73
2022/01/26 05:51:20;;;;;;;32.00;15.63;;;;;;;-143.84;66.69;45201.41;5070945;28;20191;-74
2022/01/26 05:53:47;;;;;;;53.30;20.50;;;;;;;-143.84;66.27;45212.84;5071086;28;20205;-74
2022/01/26 05:56:16;;;;;;;67.78;21.55;;;;;;;-143.84;66.64;45191.88;5070776;28;20202;-74
2022/01/26 05:58:43;;;;;;;41.90;18.08;;;;;;;-143.84;67.15;45205.22;5070694;28;20195;-73
2022/01/26 06:01:12;;;;;;;28.33;14.98;;;;;;;-143.84;67.78;45224.25;5070830;28;20202;-74
2022/01/26 06:03:39;;;;;;;28.38;15.23;;;;;;;-143.84;68.58;45188.06;5070837;28;20230;-74
2022/01/26 06:06:06;;;;;;;25.98;15.60;;;;;;;-143.84;69.66;45186.16;5070639;28;20223;-74
2022/01/26 06:08:33;;;;;;;33.75;16.92;;;;;;;-143.84;70.36;45209.03;5070236;28;20248;-73
2022/01/26 06:11:01;;;;;;;30.30;16.55;;;;;;;-143.84;71.01;45201.41;5070199;28;20661;-73
2022/01/26 06:13:30;;;;;;;29.65;15.60;;;;;;;-143.84;72.50;45231.88;5070118;28;20760;-72
2022/01/26 06:15:58;;;;;;;38.25;17.55;;;;;;;-143.84;73.50;45201.41;5069486;28;20693;-72
2022/01/26 06:18:25;;;;;;;25.88;14.50;;;;;;;-143.84;74.31;45172.84;5069521;28;20203;-71
2022/01/26 06:20:52;;;;;;;25.20;14.30;;;;;;;-143.84;74.69;45214.72;5069380;28;20199;-72
2022/01/26 06:23:24;;;;;;;23.60;11.93;;;;;;;-143.84;75.32;45191.88;5066555;28;20198;-71
2022/01/26 06:25:52;;;;;;;23.75;12.27;;;;;;;-143.84;76.03;45199.50;5067877;28;20636;-72
2022/01/26 06:28:19;;;;;;;25.33;13.15;;;;;;;-143.84;76.72;45174.75;5067176;28;20202;-72
2022/01/26 06:30:48;;;;;;;25.55;13.73;;;;;;;-143.84;76.78;45188.06;5067468;28;20206;-71
2022/01/26 06:33:16;;;;;;;22.30;12.40;;;;;;;-143.84;77.09;45201.41;5067605;28;20819;-72
2022/01/26 06:35:45;;;;;;;22.30;12.40;;;;;;;-143.84;77.54;45205.22;5068210;28;20268;-71
2022/01/26 06:38:12;;;;;;;26.08;11.98;;;;;;;-143.84;78.17;45216.63;5067356;28;20202;-71
2022/01/26 06:40:39;;;;;;;19.63;11.95;;;;;;;-143.84;78.56;45203.31;5068825;28;20272;-72
2022/01/26 06:43:10;;;;;;;24.40;13.95;;;;;;;-143.84;78.64;45189.97;5075872;28;20290;-72
2022/01/26 06:45:44;;;;;;;21.85;13.15;;;;;;;-143.84;78.60;45218.53;5069746;28;20395;-72
2022/01/26 06:50:57;;;;;;;32.70;15.57;;;;;;;-143.84;78.69;45205.22;5061912;28;20199;-72
2022/01/26 06:53:24;;;;;;;30.77;15.70;;;;;;;-143.84;79.25;45189.97;5068342;28;20202;-72
2022/01/26 06:55:51;;;;;;;27.38;14.07;;;;;;;-143.84;79.68;45197.59;5069049;28;20215;-72
2022/01/26 06:58:19;;;;;;;29.60;16.60;;;;;;;-143.84;79.51;45167.13;5068975;28;20268;-72
2022/01/26 07:00:46;;;;;;;27.10;14.75;;;;;;;-143.84;80.30;45159.50;5068933;28;20448;-72
2022/01/26 07:03:15;;;;;;;24.73;13.17;;;;;;;-143.84;79.99;45170.94;5072262;28;20209;-72
2022/01/26 07:05:42;;;;;;;22.48;14.05;;;;;;;-143.84;79.88;45178.56;5072270;28;20480;-72
2022/01/26 07:08:09;;;;;;;26.73;15.10;;;;;;;-143.84;80.13;45201.41;5072757;28;20198;-72
2022/01/26 07:10:37;;;;;;;20.63;13.52;;;;;;;-143.84;79.99;45201.41;5072674;28;20203;-72
2022/01/26 07:13:04;;;;;;;24.05;14.73;;;;;;;-143.84;79.48;45161.41;5071966;28;20195;-72
2022/01/26 07:23:47;;;;;;;21.90;12.93;;;;;;;-143.84;79.11;45165.22;5072153;28;20432;-72
2022/01/26 07:26:15;;;;;;;25.98;14.55;;;;;;;-143.84;79.05;45193.78;5072112;28;21063;-72
2022/01/26 07:28:42;;;;;;;33.87;14.57;;;;;;;-143.84;78.93;45178.56;5072648;28;20199;-73
2022/01/26 07:31:10;;;;;;;29.40;13.70;;;;;;;-143.84;78.23;45212.84;5072467;28;20444;-72
2022/01/26 07:33:39;;;;;;;25.83;14.10;;;;;;;-143.84;78.22;45159.50;5072165;28;20931;-72
2022/01/26 07:36:07;;;;;;;29.40;13.20;;;;;;;-143.84;77.70;45193.78;5070604;28;20486;-72
2022/01/26 07:38:34;;;;;;;21.77;13.00;;;;;;;-143.84;77.63;45195.69;5071943;28;20910;-72
2022/01/26 07:41:03;;;;;;;21.30;12.43;;;;;;;-143.84;77.15;45195.69;5104271;28;20441;-72
2022/01/26 07:43:30;;;;;;;21.67;12.20;;;;;;;-143.84;77.09;45182.38;5072004;28;20433;-72
2022/01/26 07:45:57;;;;;;;19.40;11.90;;;;;;;-143.84;76.88;45169.03;5072211;28;20476;-72
2022/01/26 07:48:24;;;;;;;20.70;10.80;;;;;;;-143.84;76.32;45197.59;5072315;28;20436;-73
2022/01/26 07:50:55;;;;;;;19.10;11.50;;;;;;;-143.84;76.04;45176.66;5072085;28;20944;-73
2022/01/26 07:53:22;;;;;;;21.70;10.97;;;;;;;-143.84;75.75;45172.84;5072133;28;20526;-72
2022/01/26 07:55:50;;;;;;;23.17;12.07;;;;;;;-143.84;75.75;45169.03;5072439;28;20443;-72
2022/01/26 07:58:19;;;;;;;23.43;12.67;;;;;;;-143.84;74.84;45184.25;5071783;28;20444;-73
2022/01/26 08:00:46;;;;;;;19.57;12.40;;;;;;;-143.84;73.53;45170.94;5072173;28;20444;-73
2022/01/26 08:03:13;;;;;;;16.63;10.80;;;;;;;-143.84;71.85;45174.75;5071649;28;20445;-72
2022/01/26 08:05:40;;;;;;;17.90;11.20;;;;;;;-143.84;71.91;45169.03;5071511;28;20433;-72
2022/01/26 08:08:09;;;;;;;19.50;12.13;;;;;;;-143.84;70.77;45174.75;5071684;28;20441;-73
2022/01/26 08:10:37;;;;;;;30.13;13.10;;;;;;;-143.84;71.11;45157.59;5071681;28;20454;-73
2022/01/26 08:13:04;;;;;;;23.73;14.27;;;;;;;-143.84;71.54;45184.25;5071128;28;20512;-73
2022/01/26 08:15:32;;;;;;;17.87;12.20;;;;;;;-143.84;70.56;45172.84;5071435;28;20433;-71
2022/01/26 08:18:00;;;;;;;21.50;12.33;;;;;;;-143.84;69.91;45186.16;5071138;28;20507;-72
2022/01/26 08:20:27;;;;;;;26.83;14.43;;;;;;;-143.84;68.92;45182.38;5070519;28;21353;-71
2022/01/26 08:22:56;;;;;;;26.07;15.03;;;;;;;-143.84;68.93;45184.25;5069814;28;20436;-72
2022/01/26 08:25:28;;;;;;;29.33;18.43;;;;;;;-143.84;67.31;45165.22;5069903;28;20526;-71
2022/01/26 08:28:01;;;;;;;40.40;17.27;;;;;;;-143.84;66.02;45193.78;5067733;28;20481;-72
2022/01/26 08:30:35;;;;;;;26.90;16.27;;;;;;;-143.84;65.50;45174.75;5069584;28;20447;-71
2022/01/26 08:33:02;;;;;;;26.83;15.13;;;;;;;-143.84;65.25;45169.03;5071494;28;21267;-74
2022/01/26 08:35:30;;;;;;;26.07;14.27;;;;;;;-143.84;63.96;45180.47;5070354;28;20437;-75
2022/01/26 08:37:57;;;;;;;29.63;16.90;;;;;;;-143.84;63.57;45165.22;5070184;28;21409;-75
2022/01/26 08:40:26;;;;;;;26.03;16.17;;;;;;;-143.84;63.30;45170.94;5071599;28;20474;-73
2022/01/26 08:42:54;;;;;;;48.57;16.00;;;;;;;-143.84;62.60;45180.47;5070770;28;20555;-73
2022/01/26 08:45:21;;;;;;;27.53;15.00;;;;;;;-143.84;62.20;45165.22;5068374;28;20448;-72
2022/01/26 08:47:49;;;;;;;29.57;16.77;;;;;;;-143.84;60.41;45172.84;5067481;28;20472;-73
2022/01/26 08:50:17;;;;;;;32.43;17.23;;;;;;;-143.84;59.90;45188.06;5068221;28;20477;-74
2022/01/26 08:52:45;;;;;;;28.07;16.20;;;;;;;-143.84;59.76;45150.00;5066295;28;20449;-74
2022/01/26 08:55:12;;;;;;;51.50;24.53;;;;;;;-143.84;58.80;45172.84;5068422;28;20506;-73
2022/01/26 08:57:41;;;;;;;49.20;27.90;;;;;;;-143.84;58.04;45189.97;5068346;28;20433;-74
2022/01/26 09:00:10;;;;;;;28.60;17.20;;;;;;;-143.84;57.81;45188.06;5067532;28;20456;-74
2022/01/26 09:02:37;;;;;;;27.33;15.33;;;;;;;-143.84;57.71;45151.91;5066484;28;20506;-73
2022/01/26 09:05:06;;;;;;;32.67;15.60;;;;;;;-143.84;56.57;45172.84;5067324;28;20449;-73
2022/01/26 09:07:33;;;;;;;32.07;16.73;;;;;;;-143.84;56.73;45161.41;5066792;28;20477;-74
2022/01/26 09:10:02;;;;;;;23.40;14.07;;;;;;;-143.84;55.65;45153.81;5066943;28;20445;-74
2022/01/26 09:12:32;;;;;;;41.50;15.80;;;;;;;-143.84;54.78;45191.88;5067885;28;20495;-74
2022/01/26 09:15:04;;;;;;;32.63;14.80;;;;;;;-143.84;53.99;45180.47;5065170;28;20448;-73
2022/01/26 09:17:33;;;;;;;22.80;14.00;;;;;;;-143.84;53.39;45182.38;5068229;28;20453;-74
2022/01/26 09:20:02;;;;;;;30.00;14.67;;;;;;;-143.84;52.89;45169.03;5068364;28;20464;-74
2022/01/26 09:22:30;;;;;;;30.63;15.37;;;;;;;-143.84;52.31;45188.06;5068249;28;20459;-74
2022/01/26 09:24:57;;;;;;;33.43;15.37;;;;;;;-143.84;52.13;45189.97;5066895;28;20458;-73
2022/01/26 09:27:24;;;;;;;25.17;14.90;;;;;;;-143.84;51.56;45153.81;5065361;28;20518;-74
2022/01/26 09:29:51;;;;;;;26.63;14.27;;;;;;;-143.84;51.82;45159.50;5068091;28;20494;-74
2022/01/26 09:32:20;;;;;;;20.60;13.47;;;;;;;-143.84;52.41;45165.22;5068785;28;20529;-74
2022/01/26 09:34:47;;;;;;;25.70;14.33;;;;;;;-143.84;51.57;45170.94;5067086;28;20537;-74
2022/01/26 09:37:17;;;;;;;35.37;15.53;;;;;;;-143.84;51.70;45178.56;5067923;28;20487;-75
2022/01/26 09:39:45;;;;;;;26.93;13.50;;;;;;;-143.84;51.68;45144.28;5068078;28;20514;-74
2022/01/26 09:42:13;;;;;;;28.23;14.90;;;;;;;-143.84;51.63;45159.50;5067546;28;20433;-74
2022/01/26 09:44:40;;;;;;;25.10;13.97;;;;;;;-143.84;50.89;45163.31;5069183;28;20506;-74
2022/01/26 09:47:09;;;;;;;28.30;13.17;;;;;;;-143.84;50.34;45163.31;5067885;28;20488;-74
2022/01/26 09:49:38;;;;;;;25.20;14.57;;;;;;;-143.84;49.47;45157.59;5067453;28;20444;-74
2022/01/26 09:52:13;;;;;;;25.50;13.60;;;;;;;-143.84;49.49;45186.16;5068675;28;20480;-74
2022/01/26 09:54:41;;;;;;;24.33;12.13;;;;;;;-143.84;49.82;45157.59;5068752;28;20505;-73
2022/01/26 09:57:08;;;;;;;21.50;12.63;;;;;;;-143.84;52.08;45123.34;5068465;28;20444;-73
2022/01/26 09:59:36;;;;;;;21.27;12.87;;;;;;;-143.84;49.61;45163.31;5065652;28;20452;-73
2022/01/26 10:02:04;;;;;;;19.63;11.40;;;;;;;-143.84;49.07;45140.47;5048601;28;20446;-74
2022/01/26 10:04:35;;;;;;;21.63;11.93;;;;;;;-143.84;48.17;45148.09;5066044;28;20499;-73
2022/01/26 10:07:12;;;;;;;21.50;11.60;;;;;;;-143.84;49.11;45132.84;5068093;28;20882;-74
2022/01/26 10:15:29;;;;;;;20.83;11.33;;;;;;;-143.84;48.61;45140.47;5067656;28;20477;-74
2022/01/26 10:18:10;;;;;;;19.80;11.40;;;;;;;-143.84;48.46;45155.69;5066291;28;20460;-74
2022/01/26 10:20:43;;;;;;;20.20;11.37;;;;;;;-143.84;48.25;45148.09;5066261;28;20450;-74
2022/01/26 10:23:16;;;;;;;22.80;13.37;;;;;;;-143.84;48.51;45155.69;5067129;28;20474;-74
2022/01/26 10:25:46;;;;;;;17.80;11.40;;;;;;;-143.84;48.86;45151.91;5068785;28;20457;-74
2022/01/26 10:28:15;;;;;;;24.73;11.87;;;;;;;-143.84;47.50;45144.28;5066720;28;20558;-74
2022/01/26 10:30:48;;;;;;;18.00;12.07;;;;;;;-143.84;48.42;45155.69;5068660;28;20440;-74
2022/01/26 10:33:17;;;;;;;18.80;10.83;;;;;;;-143.84;47.31;45191.88;5068332;28;20881;-74
2022/01/26 10:35:45;;;;;;;21.67;10.33;;;;;;;-143.84;46.95;45140.47;5067111;28;20550;-75
2022/01/26 10:38:15;;;;;;;16.60;9.97;;;;;;;-143.84;46.55;45176.66;5070999;28;20464;-74
2022/01/26 10:40:43;;;;;;;19.07;11.13;;;;;;;-143.84;46.60;45159.50;5071437;28;21015;-74
2022/01/26 10:43:13;;;;;;;16.67;10.00;;;;;;;-143.84;46.16;45167.13;5071585;28;20463;-75
2022/01/26 10:45:51;;;;;;;13.90;9.33;;;;;;;-143.84;46.49;45138.56;5071361;28;20984;-74
2022/01/26 10:48:26;;;;;;;20.93;12.67;;;;;;;-143.84;45.90;45142.38;5072578;28;20533;-74
2022/01/26 10:53:44;;;;;;;24.07;15.20;;;;;;;-143.84;45.42;45150.00;5050321;28;20486;-74
2022/01/26 10:56:13;;;;;;;10.40;7.60;;;;;;;-143.84;44.70;45140.47;5072583;28;20550;-75
2022/01/26 10:58:41;;;;;;;13.77;9.57;;;;;;;-143.84;44.43;45129.03;5071633;28;20459;-75
2022/01/26 11:01:08;;;;;;;17.60;10.10;;;;;;;-143.84;44.27;45138.56;5073446;28;20449;-75
2022/01/26 11:03:35;;;;;;;13.93;8.00;;;;;;;-143.84;43.96;45188.06;5072991;28;20449;-75
2022/01/26 11:06:04;;;;;;;15.43;8.27;;;;;;;-143.84;43.52;45140.47;5072224;28;20502;-74
2022/01/26 11:08:36;;;;;;;13.70;8.00;;;;;;;-143.84;43.71;45151.91;5072429;28;20493;-74
2022/01/26 11:11:05;;;;;;;14.00;8.23;;;;;;;-143.84;43.46;45140.47;5069616;28;20453;-74
2022/01/26 11:13:39;;;;;;;14.57;8.40;;;;;;;-143.84;43.77;45144.28;5069558;28;20446;-75
2022/01/26 11:16:09;;;;;;;13.90;7.27;;;;;;;-143.84;43.60;45151.91;5069578;28;20449;-74
2022/01/26 11:18:49;;;;;;;14.07;8.10;;;;;;;-143.84;42.26;45148.09;5070076;28;20505;-74
2022/01/26 11:21:31;;;;;;;14.20;8.37;;;;;;;-143.84;42.08;45132.84;5071378;28;20448;-75
2022/01/26 11:24:11;;;;;;;12.63;7.80;;;;;;;-143.84;41.59;45142.38;5070521;28;20510;-74
2022/01/26 11:26:41;;;;;;;14.73;8.40;;;;;;;-143.84;42.31;45153.81;5069143;28;20460;-74
2022/01/26 11:29:21;;;;;;;14.63;8.70;;;;;;;-143.84;42.47;45140.47;5071939;28;20514;-74
2022/01/26 11:31:48;;;;;;;18.10;9.37;;;;;;;-143.84;43.08;45130.94;5070481;28;20481;-74
2022/01/26 11:34:20;;;;;;;12.67;8.67;;;;;;;-143.84;42.79;45153.81;5071768;28;20492;-74
2022/01/26 11:36:49;;;;;;;11.03;8.37;;;;;;;-143.84;42.82;45151.91;5072377;28;20482;-74
2022/01/26 11:42:31;;;;;;;14.00;8.20;;;;;;;-143.84;42.82;45142.38;5073019;28;20413;-74
2022/01/26 11:45:08;;;;;;;13.83;8.40;;;;;;;-143.84;42.82;45138.56;5071082;28;20449;-74
2022/01/26 11:47:39;;;;;;;13.97;8.60;;;;;;;-143.84;42.39;45130.94;5067984;28;20581;-74
2022/01/26 11:50:14;;;;;;;13.40;8.43;;;;;;;-143.84;42.33;45161.41;5068828;28;20477;-74
2022/01/26 11:52:45;;;;;;;12.13;7.37;;;;;;;-143.84;42.08;45163.31;5069361;28;21012;-74
2022/01/26 11:55:30;;;;;;;17.77;11.80;;;;;;;-143.84;42.06;45132.84;5069520;28;20437;-74
2022/01/26 11:58:09;;;;;;;11.20;7.13;;;;;;;-143.84;41.78;45170.94;5071735;28;20455;-74
2022/01/26 12:00:43;;;;;;;13.10;8.30;;;;;;;-143.84;42.11;45136.66;5070889;28;20460;-74
2022/01/26 12:03:27;;;;;;;13.47;7.87;;;;;;;-143.84;42.00;45144.28;5068605;28;20862;-74
2022/01/26 12:05:57;;;;;;;17.00;8.07;;;;;;;-143.84;42.04;45148.09;5069621;28;20448;-75
2022/01/26 12:08:36;;;;;;;13.57;7.80;;;;;;;-143.84;41.88;45129.03;5072490;28;20497;-75
2022/01/26 12:11:04;;;;;;;12.30;8.00;;;;;;;-143.84;42.07;45146.19;5071341;28;20457;-74
2022/01/26 12:13:36;;;;;;;18.20;11.47;;;;;;;-143.84;42.56;45144.28;5071178;28;20457;-74
2022/01/26 12:16:09;;;;;;;14.27;9.73;;;;;;;-143.84;42.63;45142.38;5070056;28;20512;-74
2022/01/26 12:18:42;;;;;;;16.73;8.93;;;;;;;-143.84;42.61;45146.19;5071509;28;20527;-74
2022/01/26 12:32:46;;;;;;;12.50;8.80;;;;;;;-143.84;42.42;45148.09;5070718;28;20918;-74
2022/01/26 12:35:22;;;;;;;22.03;12.37;;;;;;;-143.84;42.33;45134.75;5068799;28;20466;-74
2022/01/26 12:37:59;;;;;;;18.00;9.20;;;;;;;-143.84;42.24;45148.09;5069633;28;20477;-74
2022/01/26 12:43:14;;;;;;;24.77;9.53;;;;;;;-143.84;42.45;45155.69;5068583;28;20435;-73
2022/01/26 12:45:43;;;;;;;19.60;11.03;;;;;;;-143.84;42.77;45155.69;5070851;28;20442;-74
2022/01/26 12:48:11;;;;;;;20.17;11.70;;;;;;;-143.84;42.82;45165.22;5070616;28;20508;-74
2022/01/26 12:50:40;;;;;;;19.23;10.20;;;;;;;-143.84;42.88;45127.13;5071147;28;20455;-74
2022/01/26 12:53:08;;;;;;;13.73;7.63;;;;;;;-143.84;43.15;45138.56;5070983;28;20468;-73
2022/01/26 12:55:38;;;;;;;13.97;9.10;;;;;;;-143.84;42.95;45144.28;5067657;28;20869;-74
2022/01/26 12:58:06;;;;;;;14.23;8.23;;;;;;;-143.84;43.10;45148.09;5067587;28;20459;-74
2022/01/26 13:00:43;;;;;;;14.43;8.10;;;;;;;-143.84;43.19;45134.75;5067359;28;20445;-74
2022/01/26 13:03:15;;;;;;;12.70;8.00;;;;;;;-143.84;43.27;45142.38;5068135;28;20445;-74
2022/01/26 13:05:43;;;;;;;13.50;8.23;;;;;;;-143.84;43.41;45132.84;5070458;28;20942;-74